Terminal Aerodrome Forecast
Issued by NWS

Home | Current Version | Previous Version | Text Only | Print | Product List | Glossary On
Versions: 1 2 3 4 5 6 7 8 9 10 11 12 13 14 15 16 17 18 19
591
FTUS43 KAPX 201124
TAFMBL
TAF
KMBL 201124Z 2012/2112 35007KT P6SM BKN012 BKN040
      TEMPO 2012/2014 SCT012 OVC040
     FM201400 04005KT P6SM BKN150
     FM201800 01007KT P6SM SCT150
     FM202300 01007KT P6SM FEW200
     FM210200 VRB03KT P6SM FEW200=

USA.gov is the U.S. government's official web portal to all federal, state and local government web resources and services.